Time;durP1;ratioP1;P1;durP2;ratioP2;P2;SDS_P1;SDS_P2;PMS_P1;PMS_P2;Temp;Humidity;BMP_temperature;BMP_pressure;BME280_temperature;BME280_humidity;BME280_pressure;Samples;Min_cycle;Max_cycle;Signal;HPM_P1;HPM_P2
2023/08/21 00:02:20;;;;;;;13.05;4.80;;;;;;;19.14;75.27;102366.22;7392484;19;20014;-64
2023/08/21 00:04:47;;;;;;;14.18;4.15;;;;;;;19.06;75.64;102359.81;7392905;19;20024;-64
2023/08/21 00:07:15;;;;;;;11.02;4.22;;;;;;;19.26;75.03;102353.59;7391372;19;20042;-64
2023/08/21 00:09:42;;;;;;;11.38;4.38;;;;;;;19.31;74.54;102358.56;7389938;19;20014;-63
2023/08/21 00:12:10;;;;;;;11.75;4.10;;;;;;;19.03;75.58;102370.81;7392947;19;20055;-65
2023/08/21 00:14:37;;;;;;;11.50;3.78;;;;;;;18.92;76.66;102369.84;7391164;19;20014;-65
2023/08/21 00:17:04;;;;;;;12.30;4.53;;;;;;;19.16;75.74;102376.88;7390905;19;20373;-65
2023/08/21 00:19:33;;;;;;;12.48;4.47;;;;;;;19.19;75.34;102376.56;7389782;19;20014;-65
2023/08/21 00:22:00;;;;;;;9.63;4.30;;;;;;;19.18;75.22;102374.88;7392490;19;20043;-64
2023/08/21 00:24:28;;;;;;;11.77;4.63;;;;;;;19.22;74.86;102379.84;7392901;19;20018;-64
2023/08/21 00:26:55;;;;;;;12.02;4.90;;;;;;;19.12;75.41;102375.41;7391523;19;20024;-64
2023/08/21 00:29:23;;;;;;;9.93;4.28;;;;;;;18.98;76.00;102374.72;7390787;19;20480;-64
2023/08/21 00:31:50;;;;;;;10.82;4.60;;;;;;;19.13;75.35;102369.91;7391081;19;20519;-64
2023/08/21 00:34:17;;;;;;;10.20;3.92;;;;;;;19.33;74.65;102372.72;7391860;19;20043;-64
2023/08/21 00:36:45;;;;;;;13.05;4.35;;;;;;;19.34;74.38;102364.53;7389144;19;20014;-65
2023/08/21 00:39:12;;;;;;;11.52;4.68;;;;;;;19.31;74.52;102369.31;7389673;19;20022;-66
2023/08/21 00:41:40;;;;;;;13.30;4.43;;;;;;;19.05;75.38;102367.03;7393447;19;20014;-65
2023/08/21 00:44:07;;;;;;;9.93;4.18;;;;;;;18.95;76.53;102356.19;7391568;19;20014;-65
2023/08/21 00:46:35;;;;;;;11.98;4.20;;;;;;;18.99;76.08;102363.00;7389849;19;20047;-65
2023/08/21 00:49:02;;;;;;;10.60;4.20;;;;;;;18.89;76.77;102363.91;7390230;19;20014;-67
2023/08/21 00:51:30;;;;;;;12.13;4.95;;;;;;;19.04;76.03;102361.75;7390839;19;20019;-65
2023/08/21 00:53:58;;;;;;;11.23;4.85;;;;;;;19.01;75.64;102368.25;7390382;19;20018;-65
2023/08/21 00:56:25;;;;;;;10.05;3.90;;;;;;;19.05;75.69;102366.16;7389871;19;20018;-66
2023/08/21 00:58:53;;;;;;;12.48;4.28;;;;;;;19.13;74.87;102366.38;7390954;19;20022;-67
2023/08/21 01:01:25;;;;;;;12.48;4.60;;;;;;;19.11;75.42;102362.94;7390407;19;20391;-66
2023/08/21 01:03:53;;;;;;;9.40;3.88;;;;;;;19.03;75.35;102370.81;7390346;19;20025;-66
2023/08/21 01:06:20;;;;;;;9.07;4.07;;;;;;;19.05;75.16;102369.69;7390104;19;20023;-66
2023/08/21 01:09:19;;;;;;;10.70;4.40;;;;;;;19.14;74.66;102370.75;7388956;19;20027;-66
2023/08/21 01:12:26;;;;;;;10.15;5.03;;;;;;;19.12;75.14;102367.38;7390571;19;20014;-66
2023/08/21 01:15:03;;;;;;;10.18;4.32;;;;;;;19.14;75.15;102363.53;7389242;19;20094;-65
2023/08/21 01:17:36;;;;;;;11.90;4.70;;;;;;;18.97;75.46;102362.28;7388437;19;20043;-66
2023/08/21 01:20:06;;;;;;;12.07;4.60;;;;;;;19.01;75.67;102359.34;7390116;19;20035;-66
2023/08/21 01:22:39;;;;;;;13.20;4.38;;;;;;;19.12;74.64;102370.91;7389519;19;20043;-66
2023/08/21 01:25:07;;;;;;;;;;;;;;;18.73;75.48;102359.81;7393986;19;20028;-66
2023/08/21 01:27:35;;;;;;;13.80;4.43;;;;;;;18.68;76.52;102364.66;7396653;19;19923;-65
2023/08/21 01:30:06;;;;;;;12.95;4.10;;;;;;;18.88;75.60;102359.50;7397814;19;20039;-66
2023/08/21 01:32:57;;;;;;;11.32;4.30;;;;;;;19.03;74.88;102360.91;7396864;19;20011;-66
2023/08/21 01:35:26;;;;;;;13.73;4.93;;;;;;;18.81;75.62;102366.38;7396750;19;20018;-66
2023/08/21 01:37:54;;;;;;;9.32;4.07;;;;;;;18.89;75.33;102362.09;7392989;19;20022;-66
2023/08/21 01:40:22;;;;;;;10.77;4.28;;;;;;;18.75;75.70;102365.91;7397396;19;20060;-65
2023/08/21 01:42:53;;;;;;;11.13;4.43;;;;;;;18.83;75.97;102375.16;7396848;19;20014;-65
2023/08/21 01:45:21;;;;;;;11.20;4.80;;;;;;;18.91;75.28;102370.84;7397686;19;20034;-66
2023/08/21 01:47:48;;;;;;;11.80;4.45;;;;;;;18.83;75.42;102375.16;7395791;19;20022;-66
2023/08/21 01:50:16;;;;;;;9.55;4.65;;;;;;;18.50;76.84;102369.69;7396577;19;20492;-64
2023/08/21 01:52:44;;;;;;;11.13;4.50;;;;;;;18.60;76.49;102377.88;7396953;19;20047;-64
2023/08/21 01:55:11;;;;;;;8.55;4.60;;;;;;;18.74;75.97;102384.84;7394850;19;20036;-64
2023/08/21 01:57:39;;;;;;;10.57;4.28;;;;;;;18.83;75.72;102381.38;7395042;19;20019;-64
2023/08/21 02:00:08;;;;;;;8.90;4.28;;;;;;;18.88;75.37;102376.47;7399528;19;20019;-65
2023/08/21 02:02:35;;;;;;;12.30;5.03;;;;;;;18.56;76.45;102378.25;7396769;19;20011;-65
2023/08/21 02:05:04;;;;;;;11.50;4.50;;;;;;;18.66;76.15;102380.06;7396473;19;20033;-65
2023/08/21 02:07:32;;;;;;;10.50;5.05;;;;;;;18.75;76.08;102376.63;7395342;19;20516;-65
2023/08/21 02:09:59;;;;;;;9.18;4.38;;;;;;;18.75;75.94;102373.94;7396502;19;20014;-65
2023/08/21 02:12:27;;;;;;;12.55;4.63;;;;;;;18.65;75.97;102382.84;7395928;19;20054;-66
2023/08/21 02:14:55;;;;;;;11.45;4.50;;;;;;;18.50;77.19;102379.59;7396007;19;20496;-66
2023/08/21 02:17:22;;;;;;;9.70;4.45;;;;;;;18.68;76.56;102382.59;7393823;19;20106;-65
2023/08/21 02:19:50;;;;;;;9.45;4.35;;;;;;;18.75;76.23;102383.84;7390502;19;20374;-65
2023/08/21 02:22:17;;;;;;;10.80;4.50;;;;;;;18.84;75.38;102380.38;7391975;19;20024;-65
2023/08/21 02:24:45;;;;;;;9.02;4.20;;;;;;;18.83;75.28;102378.69;7395819;19;20034;-65
2023/08/21 02:27:12;;;;;;;10.13;4.40;;;;;;;18.80;75.24;102380.78;7394510;19;20100;-65
2023/08/21 02:29:39;;;;;;;9.13;4.15;;;;;;;18.84;75.15;102382.22;7393188;19;20019;-64
2023/08/21 02:32:07;;;;;;;9.50;4.50;;;;;;;18.67;75.90;102378.22;7396268;19;20650;-65
2023/08/21 02:34:34;;;;;;;11.55;4.75;;;;;;;18.65;75.79;102383.69;7394290;19;20507;-65
2023/08/21 02:37:02;;;;;;;8.80;4.20;;;;;;;18.70;75.48;102386.03;7390482;19;20018;-65
2023/08/21 02:39:30;;;;;;;9.88;4.60;;;;;;;18.66;75.65;102390.78;7392559;19;20516;-65
2023/08/21 02:41:57;;;;;;;9.95;4.70;;;;;;;18.61;75.82;102390.28;7394730;19;20555;-66
2023/08/21 02:44:25;;;;;;;9.95;4.35;;;;;;;18.67;75.72;102392.50;7395348;19;20022;-65
2023/08/21 02:46:52;;;;;;;9.15;4.85;;;;;;;18.44;76.16;102390.84;7393672;19;20025;-64
2023/08/21 02:49:20;;;;;;;10.88;4.53;;;;;;;18.39;76.71;102390.34;7393273;19;20022;-64
2023/08/21 02:51:47;;;;;;;12.38;4.95;;;;;;;18.43;76.15;102389.09;7394024;19;20018;-65
2023/08/21 02:54:14;;;;;;;10.05;4.68;;;;;;;18.20;77.24;102397.19;7394780;19;20101;-64
2023/08/21 02:56:42;;;;;;;10.60;4.50;;;;;;;18.18;76.95;102404.50;7393483;19;20022;-64
2023/08/21 02:59:09;;;;;;;11.10;4.90;;;;;;;18.26;76.89;102411.94;7393256;19;20015;-64
2023/08/21 03:01:37;;;;;;;13.63;5.00;;;;;;;18.43;76.56;102406.06;7393906;19;20022;-64
2023/08/21 03:04:04;;;;;;;11.20;4.70;;;;;;;18.43;76.83;102410.56;7394651;19;20442;-64
2023/08/21 03:06:32;;;;;;;11.68;5.15;;;;;;;18.40;76.64;102400.09;7393659;19;20130;-65
2023/08/21 03:08:59;;;;;;;11.77;5.40;;;;;;;18.47;76.82;102406.69;7392453;19;20018;-65
2023/08/21 03:11:26;;;;;;;12.57;4.93;;;;;;;18.57;76.21;102396.91;7394330;19;20025;-64
2023/08/21 03:13:54;;;;;;;13.50;5.07;;;;;;;18.58;76.33;102408.47;7393720;19;20084;-64
2023/08/21 03:16:21;;;;;;;13.25;4.90;;;;;;;18.49;76.53;102402.88;7393064;19;20022;-64
2023/08/21 03:19:00;;;;;;;12.52;4.95;;;;;;;18.53;76.27;102403.50;7391981;19;20094;-65
2023/08/21 03:21:27;;;;;;;11.13;4.45;;;;;;;18.45;76.74;102398.75;7392815;19;20030;-65
2023/08/21 03:23:57;;;;;;;12.80;4.43;;;;;;;18.52;76.03;102401.78;7393508;19;20113;-65
2023/08/21 03:26:25;;;;;;;8.65;3.88;;;;;;;18.45;76.02;102393.38;7393024;19;20047;-64
2023/08/21 03:28:53;;;;;;;9.85;4.15;;;;;;;18.50;76.04;102409.09;7392976;19;20033;-64
2023/08/21 03:31:20;;;;;;;14.48;4.60;;;;;;;18.27;76.78;102402.91;7393852;19;20482;-64
2023/08/21 03:33:48;;;;;;;10.75;4.22;;;;;;;18.17;77.19;102400.13;7393285;19;20014;-65
2023/08/21 03:36:15;;;;;;;9.35;4.00;;;;;;;18.08;77.78;102397.31;7392425;19;20063;-65
2023/08/21 03:38:43;;;;;;;11.85;4.20;;;;;;;18.23;76.99;102396.06;7391099;19;20029;-65
2023/08/21 03:41:11;;;;;;;11.32;4.45;;;;;;;18.32;76.56;102394.50;7393587;19;20019;-65
2023/08/21 03:43:38;;;;;;;10.50;4.10;;;;;;;18.34;76.15;102397.91;7392461;19;20029;-66
2023/08/21 03:46:06;;;;;;;11.88;5.03;;;;;;;18.20;76.20;102391.84;7391092;19;20015;-66
2023/08/21 03:48:33;;;;;;;10.10;5.00;;;;;;;17.86;77.33;102371.31;7389854;19;20039;-61
2023/08/21 03:51:01;;;;;;;11.70;4.53;;;;;;;18.04;76.97;102402.03;7392777;19;20019;-61
2023/08/21 03:53:28;;;;;;;9.65;4.28;;;;;;;18.11;76.88;102389.88;7391774;19;20018;-61
2023/08/21 03:55:56;;;;;;;10.23;4.00;;;;;;;18.17;76.14;102392.06;7392221;19;20047;-61
2023/08/21 03:58:25;;;;;;;9.18;4.28;;;;;;;17.86;77.30;102398.13;7391793;19;20026;-60
2023/08/21 04:00:55;;;;;;;12.93;4.78;;;;;;;17.71;78.06;102392.97;7393871;19;20025;-64
2023/08/21 04:03:22;;;;;;;11.85;4.38;;;;;;;17.74;78.15;102399.91;7394084;19;20485;-60
2023/08/21 04:05:50;;;;;;;10.23;4.05;;;;;;;17.64;78.23;102401.63;7391629;19;20030;-61
2023/08/21 04:08:17;;;;;;;10.05;4.43;;;;;;;17.62;78.51;102399.03;7393486;19;20022;-61
2023/08/21 04:10:44;;;;;;;10.57;4.50;;;;;;;17.71;78.61;102401.03;7392970;19;20019;-60
2023/08/21 04:13:12;;;;;;;11.70;4.57;;;;;;;17.94;77.52;102401.94;7393367;19;20042;-60
2023/08/21 04:15:44;;;;;;;8.52;4.30;;;;;;;18.14;76.50;102397.69;7392671;19;20010;-61
2023/08/21 04:18:12;;;;;;;9.83;4.60;;;;;;;18.12;76.60;102394.25;7392196;19;20014;-60
2023/08/21 04:20:44;;;;;;;11.93;4.70;;;;;;;18.08;76.35;102391.94;7392073;19;20038;-60
2023/08/21 04:23:12;;;;;;;10.45;3.63;;;;;;;18.12;75.90;102394.25;7393244;19;20019;-61
2023/08/21 04:25:39;;;;;;;10.20;3.97;;;;;;;18.13;75.85;102400.50;7392715;19;20007;-61
2023/08/21 04:28:07;;;;;;;11.20;4.20;;;;;;;18.10;75.38;102403.41;7392647;19;20022;-62
2023/08/21 04:30:34;;;;;;;12.00;4.60;;;;;;;18.10;75.49;102401.56;7393136;19;20018;-60
2023/08/21 04:33:02;;;;;;;10.70;4.20;;;;;;;17.92;75.74;102401.19;7392894;19;20019;-60
2023/08/21 04:35:30;;;;;;;11.38;4.57;;;;;;;17.80;76.76;102412.03;7392189;19;20010;-59
2023/08/21 04:37:57;;;;;;;10.57;4.47;;;;;;;17.88;76.38;102409.59;7392261;19;20025;-59
2023/08/21 04:40:24;;;;;;;10.27;4.78;;;;;;;18.02;75.97;102402.19;7393093;19;20086;-61
2023/08/21 04:42:52;;;;;;;11.07;4.75;;;;;;;18.06;75.70;102399.25;7392739;19;20035;-61
2023/08/21 04:45:19;;;;;;;9.27;4.22;;;;;;;17.83;76.43;102403.75;7392987;19;20059;-60
2023/08/21 04:47:47;;;;;;;10.35;3.83;;;;;;;18.00;75.83;102401.44;7391725;19;20022;-59
2023/08/21 04:50:15;;;;;;;13.35;4.72;;;;;;;18.12;75.63;102398.75;7390350;19;20078;-60
2023/08/21 04:52:43;;;;;;;9.20;4.22;;;;;;;18.13;75.56;102404.03;7392443;19;20010;-60
2023/08/21 04:55:10;;;;;;;10.15;4.30;;;;;;;18.17;75.28;102399.28;7390807;19;20018;-59
2023/08/21 04:57:37;;;;;;;7.50;3.58;;;;;;;18.16;75.30;102403.78;7390433;19;20018;-59
2023/08/21 05:00:05;;;;;;;9.00;4.13;;;;;;;18.19;74.77;102400.84;7394421;19;20010;-60
2023/08/21 05:02:34;;;;;;;9.43;4.07;;;;;;;18.03;75.39;102401.19;7400151;19;20010;-59
2023/08/21 05:05:01;;;;;;;12.50;5.07;;;;;;;17.73;76.54;102404.41;7399754;19;20043;-60
2023/08/21 05:07:29;;;;;;;11.13;4.65;;;;;;;17.62;77.19;102403.53;7399037;19;20006;-62
2023/08/21 05:09:59;;;;;;;9.35;4.18;;;;;;;17.91;76.69;102406.69;7397047;19;20018;-61
2023/08/21 05:12:28;;;;;;;11.45;4.55;;;;;;;17.76;77.00;102403.38;7399436;19;20068;-61
2023/08/21 05:14:56;;;;;;;11.57;4.82;;;;;;;17.69;77.43;102408.31;7399260;19;20022;-61
2023/08/21 05:17:24;;;;;;;9.73;4.57;;;;;;;17.73;77.70;102417.81;7398486;19;20014;-61
2023/08/21 05:19:51;;;;;;;11.95;5.80;;;;;;;17.76;77.74;102411.41;7397195;19;20030;-60
2023/08/21 05:22:19;;;;;;;11.57;4.65;;;;;;;17.90;77.98;102413.03;7398877;19;20018;-62
2023/08/21 05:24:46;;;;;;;11.50;5.05;;;;;;;17.94;77.65;102420.69;7397708;19;20019;-60
2023/08/21 05:27:15;;;;;;;10.48;4.65;;;;;;;17.97;77.70;102416.91;7397876;19;20043;-61
2023/08/21 05:29:42;;;;;;;10.73;5.53;;;;;;;17.89;78.24;102422.88;7396801;19;20018;-60
2023/08/21 05:32:09;;;;;;;11.77;4.70;;;;;;;17.89;78.63;102422.03;7398183;19;20032;-60
2023/08/21 05:34:37;;;;;;;10.90;4.40;;;;;;;17.98;78.54;102427.53;7399254;19;20010;-60
2023/08/21 05:37:04;;;;;;;9.75;4.70;;;;;;;18.25;77.64;102416.44;7399682;19;20022;-61
2023/08/21 05:39:32;;;;;;;11.82;5.10;;;;;;;18.31;77.50;102423.13;7393931;19;20022;-59
2023/08/21 05:41:59;;;;;;;9.77;4.32;;;;;;;18.26;77.57;102419.97;7397242;19;20018;-60
2023/08/21 05:44:26;;;;;;;11.38;5.15;;;;;;;18.17;78.30;102420.72;7397437;19;20018;-63
2023/08/21 05:46:54;;;;;;;13.50;6.07;;;;;;;18.23;78.95;102415.69;7395815;19;20037;-61
2023/08/21 05:49:21;;;;;;;12.88;5.15;;;;;;;18.26;78.56;102428.03;7393834;19;20026;-66
2023/08/21 05:51:48;;;;;;;14.70;5.90;;;;;;;18.35;78.52;102429.97;7394290;19;20010;-61
2023/08/21 05:54:16;;;;;;;14.23;6.78;;;;;;;18.50;78.54;102434.09;7393596;19;20022;-61
2023/08/21 05:56:43;;;;;;;12.45;6.22;;;;;;;18.65;78.19;102431.16;7393811;19;20019;-60
2023/08/21 05:59:11;;;;;;;17.05;7.60;;;;;;;18.81;78.11;102422.72;7392579;19;20382;-61
2023/08/21 06:01:39;;;;;;;15.45;7.13;;;;;;;18.95;77.85;102434.03;7394312;19;20015;-61
2023/08/21 06:04:06;;;;;;;17.65;7.75;;;;;;;19.04;77.51;102427.09;7393737;19;20026;-60
2023/08/21 06:06:34;;;;;;;17.73;7.20;;;;;;;19.07;77.45;102425.97;7391649;19;20047;-62
2023/08/21 06:09:01;;;;;;;13.90;7.25;;;;;;;19.05;77.49;102434.16;7390918;19;20014;-62
2023/08/21 06:11:29;;;;;;;12.77;6.72;;;;;;;19.14;77.24;102432.53;7389364;19;20397;-61
2023/08/21 06:13:57;;;;;;;13.35;5.63;;;;;;;19.23;76.75;102429.06;7394340;19;20088;-60
2023/08/21 06:16:24;;;;;;;13.90;6.00;;;;;;;19.30;76.51;102438.31;7390720;19;20018;-61
2023/08/21 06:18:51;;;;;;;12.50;6.47;;;;;;;19.36;76.25;102436.97;7392411;19;20017;-62
2023/08/21 06:21:19;;;;;;;15.57;6.53;;;;;;;19.44;76.15;102437.16;7391716;19;20026;-59
2023/08/21 06:23:46;;;;;;;12.88;5.78;;;;;;;19.47;76.14;102439.59;7393917;19;20023;-59
2023/08/21 06:26:13;;;;;;;14.35;6.20;;;;;;;19.53;76.18;102438.22;7392357;19;20030;-61
2023/08/21 06:28:41;;;;;;;15.90;6.97;;;;;;;19.55;76.15;102437.09;7392696;19;20029;-59
2023/08/21 06:31:08;;;;;;;23.95;7.57;;;;;;;19.55;75.73;102442.47;7393883;19;20015;-59
2023/08/21 06:33:36;;;;;;;14.63;6.95;;;;;;;19.56;75.91;102446.03;7392068;19;20087;-60
2023/08/21 06:36:03;;;;;;;16.55;6.85;;;;;;;19.55;75.66;102447.00;7390975;19;20044;-61
2023/08/21 06:38:31;;;;;;;12.30;6.75;;;;;;;19.59;75.77;102449.31;7391917;19;20484;-59
2023/08/21 06:41:01;;;;;;;12.98;5.97;;;;;;;19.67;76.07;102446.84;7391722;19;20060;-59
2023/08/21 06:43:35;;;;;;;15.73;6.03;;;;;;;19.71;75.53;102442.06;7389821;19;20505;-59
2023/08/21 06:46:02;;;;;;;13.98;5.63;;;;;;;19.77;75.17;102446.06;7392209;19;20051;-60
2023/08/21 06:48:30;;;;;;;17.48;4.82;;;;;;;19.76;75.08;102447.88;7251355;19;2765484;-60
2023/08/21 06:50:57;;;;;;;13.30;5.43;;;;;;;19.84;74.68;102452.59;7395495;19;20059;-60
2023/08/21 06:53:24;;;;;;;13.70;6.18;;;;;;;19.90;75.14;102452.09;7394291;19;20025;-59
2023/08/21 06:55:52;;;;;;;14.55;5.35;;;;;;;19.93;74.88;102449.13;7392463;19;20775;-59
2023/08/21 06:58:19;;;;;;;12.55;6.13;;;;;;;19.94;74.34;102448.13;7395289;19;20038;-59
2023/08/21 07:00:46;;;;;;;17.30;6.43;;;;;;;19.91;74.84;102459.16;7394614;19;20018;-59
2023/08/21 07:03:14;;;;;;;13.63;6.53;;;;;;;19.93;74.49;102455.34;7395057;19;20043;-59
2023/08/21 07:05:46;;;;;;;16.02;5.82;;;;;;;20.03;74.25;102457.25;7394057;19;20022;-59
2023/08/21 07:08:14;;;;;;;16.27;5.23;;;;;;;20.07;73.99;102461.38;7394517;19;20019;-59
2023/08/21 07:10:41;;;;;;;14.30;4.70;;;;;;;20.17;73.86;102465.81;7392306;19;20034;-59
2023/08/21 07:13:09;;;;;;;15.48;4.55;;;;;;;20.18;73.33;102455.91;7394822;19;20025;-59
2023/08/21 07:15:36;;;;;;;13.00;4.68;;;;;;;20.20;73.21;102451.25;7393828;19;20018;-59
2023/08/21 07:18:04;;;;;;;14.85;4.80;;;;;;;20.18;73.27;102455.91;7394446;19;20053;-60
2023/08/21 07:20:31;;;;;;;15.20;5.15;;;;;;;20.23;73.36;102455.53;7394021;19;20026;-59
2023/08/21 07:22:58;;;;;;;15.85;4.28;;;;;;;20.29;73.27;102460.34;7393198;19;20483;-59
2023/08/21 07:25:26;;;;;;;10.70;3.83;;;;;;;20.34;72.05;102456.28;7392719;19;20043;-59
2023/08/21 07:27:55;;;;;;;10.60;3.50;;;;;;;20.36;71.35;102461.53;7394086;19;20021;-59
2023/08/21 07:30:23;;;;;;;15.52;3.88;;;;;;;20.39;71.90;102464.78;7392377;19;20011;-59
2023/08/21 07:32:52;;;;;;;18.85;4.63;;;;;;;20.42;71.53;102469.06;7393441;19;20015;-59
2023/08/21 07:35:20;;;;;;;9.50;3.17;;;;;;;20.41;71.68;102462.84;7393420;19;20043;-58
2023/08/21 07:37:48;;;;;;;10.85;3.83;;;;;;;20.45;70.83;102466.97;7393407;19;20034;-58
2023/08/21 07:40:15;;;;;;;18.73;4.65;;;;;;;20.53;71.06;102468.13;7391746;19;20019;-58
2023/08/21 07:42:43;;;;;;;14.05;5.18;;;;;;;20.56;71.04;102476.78;7393203;19;20025;-58
2023/08/21 07:45:11;;;;;;;20.38;5.82;;;;;;;20.54;71.13;102465.31;7392932;19;20078;-58
2023/08/21 07:47:38;;;;;;;15.82;5.22;;;;;;;20.57;70.70;102473.13;7392248;19;20014;-58
2023/08/21 07:50:06;;;;;;;10.82;4.03;;;;;;;20.62;70.01;102467.31;7390954;19;20018;-62
2023/08/21 07:52:35;;;;;;;16.65;4.45;;;;;;;20.66;69.92;102477.69;7392931;19;20017;-63
2023/08/21 07:55:04;;;;;;;13.85;3.70;;;;;;;20.69;69.18;102472.03;7393119;19;20015;-63
2023/08/21 07:57:31;;;;;;;15.30;3.50;;;;;;;20.71;68.68;102474.56;7392550;19;20029;-59
2023/08/21 07:59:58;;;;;;;14.70;3.83;;;;;;;20.73;68.38;102483.38;7393409;19;20018;-63
2023/08/21 08:02:26;;;;;;;16.30;4.30;;;;;;;20.74;68.90;102478.84;7392451;19;20019;-63
2023/08/21 08:04:54;;;;;;;16.70;4.18;;;;;;;20.79;68.52;102481.97;7392825;19;20021;-63
2023/08/21 08:07:21;;;;;;;19.30;4.38;;;;;;;20.78;68.71;102480.25;7390536;19;20022;-63
2023/08/21 08:09:49;;;;;;;16.15;3.88;;;;;;;20.84;68.79;102482.41;7390793;19;20018;-62
2023/08/21 08:12:16;;;;;;;15.70;3.20;;;;;;;20.88;68.63;102482.00;7392995;19;20014;-58
2023/08/21 08:14:44;;;;;;;12.60;3.25;;;;;;;20.89;67.41;102478.31;7392214;19;20038;-58
2023/08/21 08:17:11;;;;;;;14.10;3.00;;;;;;;20.87;66.98;102474.91;7391478;19;20037;-59
2023/08/21 08:19:38;;;;;;;15.32;2.78;;;;;;;20.92;66.96;102477.19;7390129;19;20018;-59
2023/08/21 08:22:06;;;;;;;14.85;3.17;;;;;;;20.96;66.71;102469.69;7392107;19;20014;-62
2023/08/21 08:24:33;;;;;;;17.23;3.53;;;;;;;21.02;67.01;102466.41;7390103;19;20026;-62
2023/08/21 08:27:01;;;;;;;14.35;3.53;;;;;;;21.09;66.87;102468.41;7391086;19;20025;-63
2023/08/21 08:29:29;;;;;;;13.48;3.63;;;;;;;21.11;nan;102466.44;7388917;19;20575;-62
2023/08/21 08:31:57;;;;;;;12.65;2.90;;;;;;;21.15;65.41;102467.84;7391584;19;20008;-59
2023/08/21 08:34:24;;;;;;;12.05;3.30;;;;;;;21.20;64.94;102472.81;7389524;19;20131;-59
2023/08/21 08:36:52;;;;;;;14.48;3.15;;;;;;;21.23;65.34;102474.41;7388782;19;20018;-59
2023/08/21 08:39:19;;;;;;;11.13;2.80;;;;;;;21.28;64.36;102466.72;7390704;19;20014;-62
2023/08/21 08:41:54;;;;;;;14.18;3.13;;;;;;;21.31;64.59;102477.22;7390952;19;20609;-59
2023/08/21 08:44:25;;;;;;;12.05;2.97;;;;;;;21.35;64.78;102470.59;7391594;19;20033;-59
2023/08/21 08:46:53;;;;;;;10.68;3.10;;;;;;;21.38;64.48;102464.94;7390438;19;20023;-60
2023/08/21 08:49:22;;;;;;;16.65;3.17;;;;;;;21.45;64.29;102476.00;7390143;19;20022;-60
2023/08/21 08:51:51;;;;;;;16.23;3.45;;;;;;;21.48;64.91;102468.44;7389344;19;20036;-60
2023/08/21 08:54:20;;;;;;;11.43;2.40;;;;;;;21.52;63.23;102474.41;7390736;19;20124;-60
2023/08/21 08:56:47;;;;;;;9.23;2.90;;;;;;;21.53;63.10;102466.19;7390864;19;20023;-60
2023/08/21 08:59:16;;;;;;;12.52;3.05;;;;;;;21.57;64.19;102467.63;7392670;19;20020;-60
2023/08/21 09:01:43;;;;;;;11.98;3.33;;;;;;;21.58;64.33;102460.38;7389228;19;20023;-60
2023/08/21 09:04:11;;;;;;;12.45;3.17;;;;;;;21.58;64.52;102466.59;7389658;19;20015;-59
2023/08/21 09:06:38;;;;;;;11.13;2.45;;;;;;;21.59;64.46;102464.75;7390785;19;20020;-60
2023/08/21 09:09:07;;;;;;;8.00;2.17;;;;;;;21.63;63.46;102456.22;7390611;19;20022;-61
2023/08/21 09:11:34;;;;;;;5.53;1.70;;;;;;;21.64;63.00;102454.41;7390717;19;20014;-59
2023/08/21 09:14:02;;;;;;;9.32;1.80;;;;;;;21.68;63.20;102452.28;7390625;19;20022;-60
2023/08/21 09:16:29;;;;;;;6.43;1.55;;;;;;;21.73;62.75;102456.22;7388842;19;20540;-59
2023/08/21 09:18:57;;;;;;;6.22;1.70;;;;;;;21.73;62.43;102453.53;7388186;19;20011;-60
2023/08/21 09:21:27;;;;;;;7.03;1.58;;;;;;;21.77;61.20;102454.09;7389359;19;20042;-59
2023/08/21 09:24:00;;;;;;;5.70;1.60;;;;;;;21.83;60.25;102448.97;7390349;19;20062;-60
2023/08/21 09:26:32;;;;;;;6.03;1.40;;;;;;;21.86;61.29;102445.13;7389421;19;20074;-59
2023/08/21 09:29:04;;;;;;;6.30;1.58;;;;;;;21.89;61.46;102448.38;7389637;19;20014;-60
2023/08/21 09:31:33;;;;;;;5.22;1.70;;;;;;;21.95;60.61;102438.03;7388841;19;20028;-60
2023/08/21 09:34:05;;;;;;;5.72;1.48;;;;;;;22.02;60.70;102445.38;7390507;19;20022;-60
2023/08/21 09:36:34;;;;;;;5.30;1.33;;;;;;;22.00;60.48;102446.53;7389528;19;20014;-60
2023/08/21 09:39:03;;;;;;;5.03;1.30;;;;;;;22.02;59.69;102436.44;7388750;19;20504;-62
2023/08/21 09:41:30;;;;;;;6.93;1.85;;;;;;;22.06;59.93;102435.16;7389881;19;20085;-60
2023/08/21 09:44:03;;;;;;;6.88;1.50;;;;;;;22.13;59.97;102433.53;7389536;19;20025;-60
2023/08/21 09:46:31;;;;;;;6.45;1.50;;;;;;;22.12;59.64;102429.16;7395335;19;20495;-60
2023/08/21 09:48:59;;;;;;;5.07;1.50;;;;;;;22.07;59.52;102418.81;7393756;19;20044;-58
2023/08/21 09:51:27;;;;;;;4.13;1.50;;;;;;;22.19;59.10;102433.00;7397600;19;20026;-59
2023/08/21 09:53:55;;;;;;;7.45;1.83;;;;;;;22.21;59.78;102432.81;7396888;19;20030;-58
2023/08/21 09:56:23;;;;;;;9.40;1.70;;;;;;;22.25;58.05;102421.63;7394329;19;20018;-58
2023/08/21 09:58:51;;;;;;;6.10;1.80;;;;;;;22.29;57.24;102424.88;7397742;19;20632;-59
2023/08/21 10:01:21;;;;;;;6.53;1.58;;;;;;;22.32;57.07;102432.63;7393998;19;20483;-59
2023/08/21 10:03:49;;;;;;;5.78;1.30;;;;;;;22.33;57.34;102420.88;7396997;19;20011;-58
2023/08/21 10:06:20;;;;;;;5.28;1.55;;;;;;;22.43;56.43;102432.44;7396171;19;20018;-60
2023/08/21 10:08:53;;;;;;;5.15;1.65;;;;;;;22.46;55.73;102440.25;7394355;19;20026;-60
2023/08/21 10:11:21;;;;;;;5.20;1.50;;;;;;;22.38;56.11;102435.59;7394666;19;20521;-61
2023/08/21 10:13:51;;;;;;;5.68;1.50;;;;;;;22.43;55.72;102437.84;7396669;19;20131;-60
2023/08/21 10:16:21;;;;;;;6.53;1.30;;;;;;;22.47;55.30;102436.53;7395729;19;20504;-63
2023/08/21 10:18:48;;;;;;;6.90;1.67;;;;;;;22.48;54.74;102440.13;7395447;19;20480;-60
2023/08/21 10:21:18;;;;;;;4.45;1.48;;;;;;;22.50;54.70;102438.09;7394083;19;20018;-60
2023/08/21 10:23:50;;;;;;;5.78;1.40;;;;;;;22.57;54.61;102434.66;7395963;19;20370;-59
2023/08/21 10:26:22;;;;;;;5.93;1.55;;;;;;;22.70;54.41;102430.75;7394066;19;20014;-60
2023/08/21 10:28:55;;;;;;;5.05;1.38;;;;;;;22.70;54.48;102420.78;7395134;19;20014;-60
2023/08/21 10:31:26;;;;;;;6.47;1.30;;;;;;;22.60;54.46;102415.44;7396059;19;20036;-61
2023/08/21 10:33:53;;;;;;;8.40;1.60;;;;;;;22.58;54.00;102414.75;7395568;19;20022;-60
2023/08/21 10:36:39;;;;;;;3.95;1.52;;;;;;;22.78;53.76;102411.91;7393343;19;20037;-60
2023/08/21 10:39:18;;;;;;;4.57;1.63;;;;;;;22.79;54.73;102416.34;7394912;19;20029;-63
2023/08/21 10:42:14;;;;;;;4.60;1.38;;;;;;;22.75;54.71;102414.94;7393217;19;20029;-64
2023/08/21 10:44:41;;;;;;;3.45;1.40;;;;;;;22.75;54.44;102423.91;7395143;19;20015;-61
2023/08/21 10:47:23;;;;;;;3.83;1.23;;;;;;;22.83;53.47;102421.28;7394567;19;20023;-61
2023/08/21 10:49:53;;;;;;;5.03;1.23;;;;;;;22.74;53.76;102419.50;7394222;19;20018;-62
2023/08/21 10:52:26;;;;;;;5.68;1.45;;;;;;;22.72;53.89;102424.19;7395153;19;20044;-62
2023/08/21 10:54:55;;;;;;;3.88;1.17;;;;;;;22.72;53.96;102415.25;7394707;19;20024;-62
2023/08/21 10:57:24;;;;;;;5.20;1.15;;;;;;;22.84;54.13;102422.13;7390632;19;20018;-61
2023/08/21 11:00:00;;;;;;;3.85;1.33;;;;;;;22.96;54.02;102422.78;7396590;19;20025;-60
2023/08/21 11:02:30;;;;;;;6.07;1.63;;;;;;;23.02;53.25;102423.03;7394864;19;20015;-61
2023/08/21 11:04:58;;;;;;;5.40;1.08;;;;;;;23.18;52.90;102416.06;7394957;19;20484;-62
2023/08/21 11:07:27;;;;;;;3.60;1.10;;;;;;;23.05;53.15;102425.41;7393862;19;20018;-61
2023/08/21 11:09:54;;;;;;;3.17;1.23;;;;;;;22.91;54.05;102431.34;7392576;19;20086;-60
2023/08/21 11:12:24;;;;;;;5.93;1.48;;;;;;;22.95;53.79;102424.63;7394150;19;20017;-60
2023/08/21 11:14:51;;;;;;;6.43;1.33;;;;;;;23.14;53.71;102430.91;7394092;19;20051;-60
2023/08/21 11:17:18;;;;;;;4.45;1.23;;;;;;;23.21;53.29;102430.13;7393004;19;20074;-60
2023/08/21 11:19:48;;;;;;;4.50;1.30;;;;;;;23.20;52.77;102422.16;7393332;19;20026;-60
2023/08/21 11:22:16;;;;;;;4.80;1.23;;;;;;;23.14;52.26;102422.78;7393991;19;20022;-60
2023/08/21 11:24:46;;;;;;;3.22;1.13;;;;;;;23.00;52.95;102419.59;7394145;19;20031;-61
2023/08/21 11:27:16;;;;;;;4.85;1.20;;;;;;;22.99;53.20;102415.22;7393219;19;20011;-61